Chibougamau Airport (YMT/CYMT)

Map

Destinations

Information

Location
Chibougamau, Quebec, Canada
Local Time
20:58 / 8:58 pm
GMT Time
01:58 / 1:58 am
Gates
Ramp
No FAA reported delays
METAR CYMT 250132Z AUTO 16010G16KT 5SM -SN OVC007 M05/M06 A2928 RMK SLP943
TAF TAF AMD CYMT 242227Z 2422/2501 14012G22KT 6SM -SN OVC025 TEMPO 2422/2501 1SM -SN OVC015 RMK FCST BASED ON AUTO OBS. NXT FCST WILL BE ISSUED AT 251245Z